Time;durP1;ratioP1;P1;durP2;ratioP2;P2;SDS_P1;SDS_P2;PMS_P1;PMS_P2;Temp;Humidity;BMP_temperature;BMP_pressure;BME280_temperature;BME280_humidity;BME280_pressure;Samples;Min_cycle;Max_cycle;Signal;HPM_P1;HPM_P2
2021/08/29 00:02:23;;;;;;;;;;;11.40;99.90;;;10.15;100.00;95760.41;10432477;28;2113;-81
2021/08/29 00:07:26;;;;;;;;;;;11.30;99.90;;;10.11;100.00;95767.38;10448497;28;2162;-79
2021/08/29 00:12:29;;;;;;;;;;;11.20;99.90;;;10.11;100.00;95767.38;10408030;28;2061;-78
2021/08/29 00:17:32;;;;;;;;;;;11.20;99.90;;;10.09;100.00;95768.75;10396795;28;2138;-78
2021/08/29 00:22:35;;;;;;;;;;;11.20;99.90;;;10.07;100.00;95755.59;10402078;28;2093;-78
2021/08/29 00:27:38;;;;;;;;;;;11.20;99.90;;;10.11;100.00;95751.25;10394130;28;2558;-78
2021/08/29 00:32:40;;;;;;;;;;;11.20;99.90;;;10.12;100.00;95755.59;10399326;28;2218;-77
2021/08/29 00:37:43;;;;;;;;;;;11.20;99.90;;;10.09;100.00;95753.44;10423742;28;2074;-78
2021/08/29 00:42:46;;;;;;;;;;;11.20;99.90;;;10.10;100.00;95770.34;10422978;28;2128;-79
2021/08/29 00:47:50;;;;;;;;;;;11.20;99.90;;;10.14;100.00;95758.78;10394161;28;2148;-78
2021/08/29 00:52:53;;;;;;;;;;;11.20;99.90;;;10.12;100.00;95752.09;10400787;28;2101;-77
2021/08/29 00:57:56;;;;;;;;;;;11.20;99.90;;;10.13;100.00;95759.06;10402850;28;2211;-77
2021/08/29 01:02:59;;;;;;;;;;;11.20;99.90;;;10.18;100.00;95757.19;10397646;28;2061;-78
2021/08/29 01:08:02;;;;;;;;;;;11.20;99.90;;;10.21;100.00;95750.47;10395554;28;2081;-78
2021/08/29 01:13:20;;;;;;;;;;;11.30;99.90;;;10.24;100.00;95761.50;10395521;28;2080;-76
2021/08/29 01:18:30;;;;;;;;;;;11.30;99.90;;;10.26;100.00;95755.84;10399028;28;2159;-77
2021/08/29 01:23:33;;;;;;;;;;;11.30;99.90;;;10.23;100.00;95754.50;10398708;28;2121;-77
2021/08/29 01:28:38;;;;;;;;;;;11.30;99.90;;;10.22;100.00;95747.50;10421747;28;2026;-77
2021/08/29 01:33:41;;;;;;;;;;;11.30;99.90;;;10.19;100.00;95750.72;10401465;28;2175;-79
2021/08/29 01:38:44;;;;;;;;;;;11.30;99.90;;;10.15;100.00;95746.97;10397298;28;2053;-79
2021/08/29 01:43:46;;;;;;;;;;;11.30;99.90;;;10.10;100.00;95740.78;10396078;28;2137;-79
2021/08/29 01:48:49;;;;;;;;;;;11.20;99.90;;;10.08;100.00;95735.72;10415337;28;2706;-79
2021/08/29 01:53:52;;;;;;;;;;;11.20;99.90;;;10.01;100.00;95729.81;10395205;28;2045;-79
2021/08/29 01:58:55;;;;;;;;;;;11.10;99.90;;;9.96;100.00;95732.50;10388371;28;2211;-80
2021/08/29 02:03:58;;;;;;;;;;;11.10;99.90;;;10.02;100.00;95726.03;10398342;28;2049;-79
2021/08/29 02:09:01;;;;;;;;;;;11.10;99.90;;;9.92;100.00;95728.72;10398531;28;2137;-78
2021/08/29 02:14:03;;;;;;;;;;;11.10;99.90;;;9.90;100.00;95734.38;10386577;28;2073;-78
2021/08/29 02:19:06;;;;;;;;;;;11.10;99.90;;;9.96;100.00;95719.06;10394860;28;2115;-76
2021/08/29 02:24:09;;;;;;;;;;;11.00;99.90;;;10.00;100.00;95731.69;10391376;28;2223;-78
2021/08/29 02:29:12;;;;;;;;;;;11.10;99.90;;;9.97;100.00;95724.16;10397783;28;1983;-79
2021/08/29 02:34:15;;;;;;;;;;;11.10;99.90;;;9.94;100.00;95718.53;10394874;28;2041;-77
2021/08/29 02:39:18;;;;;;;;;;;11.00;99.90;;;9.88;100.00;95715.06;10390067;28;2125;-77
2021/08/29 02:44:20;;;;;;;;;;;11.00;99.90;;;9.72;100.00;95722.31;10394446;28;2184;-77
2021/08/29 02:49:23;;;;;;;;;;;10.90;99.90;;;9.62;100.00;95713.47;10387634;28;2144;-77
2021/08/29 02:54:26;;;;;;;;;;;10.90;99.90;;;9.56;100.00;95715.34;10391956;28;2299;-78
2021/08/29 02:59:29;;;;;;;;;;;10.80;99.90;;;9.64;100.00;95719.34;10394541;28;2213;-76
2021/08/29 03:04:32;;;;;;;;;;;10.80;99.90;;;9.72;100.00;95722.31;10396238;28;2240;-79
2021/08/29 03:09:35;;;;;;;;;;;10.80;99.90;;;9.86;100.00;95711.00;10396433;28;2093;-77
2021/08/29 03:14:37;;;;;;;;;;;10.90;99.90;;;9.97;100.00;95701.88;10393192;28;2165;-76
2021/08/29 03:19:40;;;;;;;;;;;11.00;99.90;;;10.01;100.00;95693.03;10394557;28;2252;-78
2021/08/29 03:24:43;;;;;;;;;;;11.10;99.90;;;10.09;100.00;95697.03;10401629;28;2186;-78
2021/08/29 03:29:46;;;;;;;;;;;11.10;99.90;;;10.14;100.00;95701.59;10392179;28;2177;-78
2021/08/29 03:34:48;;;;;;;;;;;11.10;99.90;;;10.20;100.00;95695.94;10393613;28;2085;-76
2021/08/29 03:39:51;;;;;;;;;;;11.20;99.90;;;10.16;100.00;95694.06;10393401;28;2133;-77
2021/08/29 03:44:54;;;;;;;;;;;11.20;99.90;;;10.12;100.00;95696.50;10394541;28;2151;-78
2021/08/29 03:49:57;;;;;;;;;;;11.20;99.90;;;10.19;100.00;95691.63;10395517;28;2183;-77
2021/08/29 03:55:00;;;;;;;;;;;11.20;99.90;;;10.17;100.00;95693.78;10403050;28;2038;-76
2021/08/29 04:00:03;;;;;;;;;;;11.20;99.90;;;10.11;100.00;95684.13;10413346;28;2087;-75
2021/08/29 04:05:06;;;;;;;;;;;11.20;99.90;;;10.05;100.00;95684.41;10415384;28;2218;-77
2021/08/29 04:10:09;;;;;;;;;;;11.20;99.90;;;9.98;100.00;95672.06;10404164;28;2157;-77
2021/08/29 04:15:12;;;;;;;;;;;11.20;99.90;;;9.95;100.00;95671.81;10389972;28;2162;-77
2021/08/29 04:20:35;;;;;;;;;;;11.10;99.90;;;9.91;100.00;95670.75;10392454;28;2191;-77
2021/08/29 04:25:57;;;;;;;;;;;11.10;99.90;;;9.90;100.00;95674.50;10396199;28;2634;-76
2021/08/29 04:31:02;;;;;;;;;;;11.00;99.90;;;10.01;100.00;95681.47;10397534;28;2111;-77
2021/08/29 04:36:05;;;;;;;;;;;11.10;99.90;;;10.18;100.00;95686.50;10394101;28;2136;-78
2021/08/29 04:41:08;;;;;;;;;;;11.10;99.90;;;10.33;100.00;95685.72;10401328;28;2105;-77
2021/08/29 04:46:14;;;;;;;;;;;11.30;99.90;;;10.49;100.00;95687.25;10390203;28;2215;-77
2021/08/29 04:51:17;;;;;;;;;;;11.40;99.90;;;10.52;100.00;95695.59;10386015;28;2267;-76
2021/08/29 04:56:20;;;;;;;;;;;11.50;99.90;;;10.61;100.00;95690.44;10394387;28;2525;-78
2021/08/29 05:01:26;;;;;;;;;;;11.60;99.90;;;10.59;100.00;95681.84;10394969;28;2366;-76
2021/08/29 05:06:30;;;;;;;;;;;11.60;99.90;;;10.49;100.00;95684.56;10402385;28;2449;-78
2021/08/29 05:11:33;;;;;;;;;;;11.60;99.90;;;10.44;100.00;95684.63;10403229;28;2018;-76
2021/08/29 05:16:36;;;;;;;;;;;11.50;99.90;;;10.41;100.00;95680.56;10399903;28;2235;-79
2021/08/29 05:21:38;;;;;;;;;;;11.40;99.90;;;10.49;100.00;95676.50;10400227;28;2157;-77
2021/08/29 05:26:41;;;;;;;;;;;11.40;99.90;;;10.59;100.00;95686.44;10395637;28;2451;-77
2021/08/29 05:31:44;;;;;;;;;;;11.40;99.90;;;10.62;100.00;95683.97;10393092;28;2151;-77
2021/08/29 05:36:47;;;;;;;;;;;11.60;99.90;;;10.67;100.00;95689.34;10402252;28;2085;-79
2021/08/29 05:41:50;;;;;;;;;;;11.60;99.90;;;10.67;100.00;95689.34;10392099;28;2164;-79
2021/08/29 05:46:53;;;;;;;;;;;11.60;99.90;;;10.69;100.00;95692.56;10395352;28;2088;-78
2021/08/29 05:51:55;;;;;;;;;;;11.60;99.90;;;10.73;100.00;95688.22;10401891;28;2112;-79
2021/08/29 05:56:58;;;;;;;;;;;11.60;99.90;;;10.80;100.00;95688.72;10398861;28;2215;-78
2021/08/29 06:02:01;;;;;;;;;;;11.70;99.90;;;10.78;100.00;95693.59;10397033;28;2111;-78
2021/08/29 06:07:04;;;;;;;;;;;11.80;99.90;;;10.69;100.00;95692.56;10394219;28;2112;-76
2021/08/29 06:12:07;;;;;;;;;;;11.70;99.90;;;10.76;100.00;95700.34;10388382;28;2097;-77
2021/08/29 06:17:10;;;;;;;;;;;11.70;99.90;;;10.79;100.00;95694.41;10395550;28;2096;-77
2021/08/29 06:22:13;;;;;;;;;;;11.70;99.90;;;10.77;100.00;95699.25;10398299;28;2115;-78
2021/08/29 06:27:15;;;;;;;;;;;11.70;99.90;;;10.59;100.00;95691.81;10394434;28;2509;-78
2021/08/29 06:32:18;;;;;;;;;;;11.60;99.90;;;10.58;100.00;95691.00;10393079;28;2096;-79
2021/08/29 06:37:25;;;;;;;;;;;11.60;99.90;;;10.57;100.00;95683.22;10393314;28;2058;-77
2021/08/29 06:42:28;;;;;;;;;;;11.50;99.90;;;10.68;100.00;95690.13;10397945;28;2173;-76
2021/08/29 06:47:31;;;;;;;;;;;11.60;99.90;;;10.87;100.00;95679.56;10404495;28;2095;-78
2021/08/29 06:52:33;;;;;;;;;;;11.70;99.90;;;10.92;100.00;95680.34;10401902;28;2202;-76
2021/08/29 06:57:36;;;;;;;;;;;11.80;99.90;;;10.95;100.00;95685.19;10401593;28;2073;-78
2021/08/29 07:02:39;;;;;;;;;;;11.80;99.90;;;11.20;100.00;95686.91;10403407;28;2144;-76
2021/08/29 07:07:42;;;;;;;;;;;11.90;99.90;;;11.18;100.00;95689.06;10404880;28;2151;-77
2021/08/29 07:12:45;;;;;;;;;;;12.00;99.90;;;11.26;100.00;95690.34;10397263;28;2101;-76
2021/08/29 07:17:48;;;;;;;;;;;12.10;99.90;;;11.37;100.00;95686.50;10394000;28;2104;-77
2021/08/29 07:22:51;;;;;;;;;;;12.20;99.90;;;11.76;100.00;95689.16;10394109;28;1987;-77
2021/08/29 07:27:54;;;;;;;;;;;12.30;99.90;;;11.96;100.00;95682.81;10390703;28;2247;-78
2021/08/29 07:32:57;;;;;;;;;;;12.60;99.90;;;12.26;100.00;95681.69;10392625;28;2137;-75
2021/08/29 07:38:00;;;;;;;;;;;12.90;99.90;;;12.32;100.00;95691.31;10396674;28;2578;-78
2021/08/29 07:43:03;;;;;;;;;;;13.00;99.90;;;12.41;100.00;95688.81;10407703;28;2099;-78
2021/08/29 07:48:06;;;;;;;;;;;13.10;99.90;;;12.83;100.00;95682.63;10403784;28;2279;-78
2021/08/29 07:53:08;;;;;;;;;;;13.20;99.90;;;13.42;100.00;95685.88;10426173;28;2078;-77
2021/08/29 07:58:11;;;;;;;;;;;13.60;99.90;;;13.90;100.00;95682.97;10432774;28;2101;-77
2021/08/29 08:03:14;;;;;;;;;;;14.20;99.90;;;14.47;100.00;95681.66;10407429;28;2357;-78
2021/08/29 08:08:17;;;;;;;;;;;14.60;99.90;;;14.12;100.00;95687.69;10388938;28;2212;-78
2021/08/29 08:13:20;;;;;;;;;;;14.90;99.90;;;14.02;100.00;95689.50;10410051;28;2047;-78
2021/08/29 08:18:23;;;;;;;;;;;14.80;99.90;;;13.49;100.00;95681.72;10406131;28;2060;-79
2021/08/29 08:23:26;;;;;;;;;;;14.60;99.90;;;13.70;100.00;95684.09;10400524;28;2096;-80
2021/08/29 08:28:28;;;;;;;;;;;14.50;99.90;;;13.80;100.00;95686.63;10393131;28;2374;-78
2021/08/29 08:33:31;;;;;;;;;;;14.50;99.90;;;13.86;100.00;95685.44;10389342;28;2085;-77
2021/08/29 08:38:34;;;;;;;;;;;14.60;99.90;;;14.27;100.00;95680.13;10399543;28;2076;-78
2021/08/29 08:43:37;;;;;;;;;;;14.80;99.90;;;14.19;100.00;95690.84;10402772;28;2081;-78
2021/08/29 08:48:40;;;;;;;;;;;15.00;99.90;;;14.11;100.00;95689.59;10399247;28;3388;-78
2021/08/29 08:53:43;;;;;;;;;;;14.90;99.90;;;13.96;100.00;95690.69;10401866;28;2106;-78
2021/08/29 08:58:45;;;;;;;;;;;14.80;99.90;;;14.31;100.00;95683.00;10402638;28;2353;-78
2021/08/29 09:03:48;;;;;;;;;;;14.80;99.90;;;14.42;100.00;95679.03;10400896;28;2938;-78
2021/08/29 09:08:51;;;;;;;;;;;15.10;99.90;;;14.50;100.00;95677.53;10394226;28;2065;-79
2021/08/29 09:14:13;;;;;;;;;;;15.20;99.90;;;14.59;100.00;95676.56;10398256;28;2118;-79
2021/08/29 09:19:16;;;;;;;;;;;15.30;99.90;;;14.73;95.08;95673.03;10402068;28;2188;-76
2021/08/29 09:24:19;;;;;;;;;;;15.40;99.90;;;15.28;94.53;95681.88;10394407;28;2482;-76
2021/08/29 09:29:23;;;;;;;;;;;15.80;99.90;;;15.28;95.48;95681.88;10401137;28;2243;-77
2021/08/29 09:34:26;;;;;;;;;;;15.90;99.90;;;15.16;92.83;95680.81;10401543;28;2071;-79
2021/08/29 09:39:29;;;;;;;;;;;15.80;99.90;;;15.38;94.86;95675.41;10412800;28;2065;-78
2021/08/29 09:44:32;;;;;;;;;;;15.90;99.90;;;15.33;91.94;95681.75;10399138;28;2173;-79
2021/08/29 09:49:35;;;;;;;;;;;16.00;99.90;;;15.78;89.27;95675.59;10396516;28;2515;-77
2021/08/29 09:54:38;;;;;;;;;;;16.30;99.90;;;16.19;84.22;95668.00;10395649;28;2057;-78
2021/08/29 09:59:41;;;;;;;;;;;16.60;99.90;;;16.42;83.49;95654.41;10396370;28;2633;-79
2021/08/29 10:04:43;;;;;;;;;;;16.70;99.90;;;16.56;85.14;95652.38;10396445;28;2146;-79
2021/08/29 10:09:46;;;;;;;;;;;17.00;99.90;;;17.07;77.18;95656.34;10394382;28;2002;-77
2021/08/29 10:14:49;;;;;;;;;;;17.30;99.90;;;16.61;79.98;95657.66;10396536;28;2140;-78
2021/08/29 10:19:52;;;;;;;;;;;17.20;99.90;;;17.05;81.67;95652.34;10394461;28;2097;-78
2021/08/29 10:24:55;;;;;;;;;;;17.40;99.90;;;17.37;78.37;95654.63;10394277;28;2294;-79
2021/08/29 10:29:58;;;;;;;;;;;17.70;99.90;;;17.21;78.27;95648.84;10393856;28;2230;-79
2021/08/29 10:35:00;;;;;;;;;;;17.80;99.90;;;17.67;75.00;95644.69;10397090;28;1793;-77
2021/08/29 10:40:03;;;;;;;;;;;18.20;99.90;;;17.45;71.51;95640.22;10395404;28;2108;-78
2021/08/29 10:45:08;;;;;;;;;;;18.40;99.90;;;18.00;68.03;95638.72;10396866;28;1853;-80
2021/08/29 10:50:11;;;;;;;;;;;18.60;99.90;;;17.77;72.51;95640.88;10397134;28;2088;-79
2021/08/29 10:55:15;;;;;;;;;;;18.50;99.90;;;17.78;70.25;95632.38;10399008;28;2476;-76
2021/08/29 11:00:18;;;;;;;;;;;18.40;99.90;;;17.08;70.23;95630.78;10396266;28;2082;-78
2021/08/29 11:05:21;;;;;;;;;;;18.00;99.90;;;17.68;66.99;95623.72;10395442;28;2104;-77
2021/08/29 11:10:24;;;;;;;;;;;18.00;99.90;;;17.63;64.60;95622.00;10398047;28;2083;-79
2021/08/29 11:15:27;;;;;;;;;;;18.30;99.90;;;17.91;66.13;95618.94;10397838;28;2232;-77
2021/08/29 11:20:30;;;;;;;;;;;18.40;99.90;;;17.89;64.59;95618.47;10395960;28;2321;-78
2021/08/29 11:25:33;;;;;;;;;;;18.50;99.90;;;17.92;64.46;95615.09;10392912;28;2584;-80
2021/08/29 11:30:36;;;;;;;;;;;18.40;99.90;;;17.71;65.09;95609.50;10389875;28;2121;-78
2021/08/29 11:35:39;;;;;;;;;;;18.40;99.90;;;17.14;66.36;95615.94;10392993;28;2164;-78
2021/08/29 11:40:42;;;;;;;;;;;18.20;99.90;;;16.56;71.32;95619.81;10393987;28;2066;-77
2021/08/29 11:45:44;;;;;;;;;;;17.70;99.90;;;15.29;83.77;95636.63;10396836;28;2077;-77
2021/08/29 11:50:47;;;;;;;;;;;16.90;99.90;;;13.74;91.48;95631.06;10397985;28;2104;-78
2021/08/29 11:55:50;;;;;;;;;;;15.50;99.90;;;13.42;97.60;95629.19;10388683;28;2077;-76
2021/08/29 12:00:53;;;;;;;;;;;14.60;99.90;;;13.69;100.00;95626.56;10389388;28;2144;-77
2021/08/29 12:05:56;;;;;;;;;;;14.50;99.90;;;13.76;100.00;95627.00;10394526;28;2246;-80
2021/08/29 12:11:00;;;;;;;;;;;14.70;99.90;;;14.37;100.00;95611.50;10397619;28;2100;-78
2021/08/29 12:16:03;;;;;;;;;;;14.80;99.90;;;14.77;100.00;95612.63;10399246;28;2104;-79
2021/08/29 12:21:06;;;;;;;;;;;15.20;99.90;;;15.09;100.00;95611.63;10403952;28;2084;-79
2021/08/29 12:26:09;;;;;;;;;;;15.60;99.90;;;14.84;91.54;95604.09;10407354;28;2291;-79
2021/08/29 12:31:12;;;;;;;;;;;15.60;99.90;;;15.21;94.63;95594.03;10421693;28;2033;-78
2021/08/29 12:36:15;;;;;;;;;;;15.70;99.90;;;15.66;86.35;95594.84;10405218;28;2073;-77
2021/08/29 12:41:17;;;;;;;;;;;16.10;99.90;;;16.15;92.39;95591.09;10403666;28;2297;-77
2021/08/29 12:46:21;;;;;;;;;;;16.50;99.90;;;16.93;81.94;95582.38;10407174;28;2096;-76
2021/08/29 12:51:24;;;;;;;;;;;17.10;99.90;;;16.78;78.42;95578.19;10404151;28;2072;-79
2021/08/29 12:56:27;;;;;;;;;;;17.40;99.90;;;16.26;89.01;95575.34;10407328;28;2148;-79
2021/08/29 13:01:30;;;;;;;;;;;17.20;99.90;;;15.94;82.37;95584.63;10417397;28;2267;-80
2021/08/29 13:06:34;;;;;;;;;;;17.10;99.90;;;16.56;82.44;95576.41;10420044;28;2097;-79
2021/08/29 13:11:37;;;;;;;;;;;17.10;99.90;;;16.68;77.83;95565.72;10417305;28;2155;-77
2021/08/29 13:16:40;;;;;;;;;;;17.30;99.90;;;16.64;84.66;95566.66;10404871;28;2189;-78
2021/08/29 13:21:43;;;;;;;;;;;17.30;99.90;;;16.65;79.38;95570.97;10406050;28;2168;-77
2021/08/29 13:26:46;;;;;;;;;;;17.40;99.90;;;16.89;77.61;95562.41;10399015;28;2416;-77
2021/08/29 13:31:51;;;;;;;;;;;17.50;99.90;;;17.01;80.12;95557.16;10405477;28;2184;-79
2021/08/29 13:36:54;;;;;;;;;;;17.60;99.90;;;17.13;79.97;95560.03;10397294;28;2242;-77
2021/08/29 13:41:57;;;;;;;;;;;17.60;99.90;;;17.32;75.32;95551.53;10440340;28;2110;-79
2021/08/29 13:47:00;;;;;;;;;;;17.90;99.90;;;17.13;78.74;95551.88;10429815;28;2044;-80
2021/08/29 13:52:03;;;;;;;;;;;17.90;99.90;;;17.70;74.89;95548.91;10439280;28;2090;-77
2021/08/29 13:57:05;;;;;;;;;;;18.00;99.90;;;17.72;74.80;95549.41;10433412;28;2097;-79
2021/08/29 14:02:08;;;;;;;;;;;18.30;99.90;;;17.45;71.13;95553.28;10440951;28;2110;-79
2021/08/29 14:07:12;;;;;;;;;;;18.20;99.90;;;17.32;73.20;95550.75;10439396;28;2112;-81
2021/08/29 14:12:15;;;;;;;;;;;18.10;99.90;;;17.32;68.33;95545.31;10417129;28;2043;-77
2021/08/29 14:17:17;;;;;;;;;;;18.10;99.90;;;16.83;70.21;95547.41;10406674;28;2517;-79
2021/08/29 14:22:20;;;;;;;;;;;17.80;99.90;;;16.66;72.92;95546.22;10406320;28;2184;-80
2021/08/29 14:27:23;;;;;;;;;;;17.60;99.90;;;16.91;71.73;95541.97;10403168;28;2133;-78
2021/08/29 14:32:26;;;;;;;;;;;17.60;99.90;;;16.49;67.48;95552.44;10408433;28;2068;-77
2021/08/29 14:37:29;;;;;;;;;;;17.50;99.90;;;16.25;70.56;95537.69;10396705;28;2197;-78
2021/08/29 14:42:32;;;;;;;;;;;17.20;99.90;;;16.23;70.89;95531.81;10391979;28;2119;-78
2021/08/29 14:47:34;;;;;;;;;;;17.00;99.90;;;16.20;70.17;95539.44;10386308;28;3248;-77
2021/08/29 14:52:37;;;;;;;;;;;17.00;99.90;;;16.08;73.08;95541.16;10391934;28;2967;-79
2021/08/29 14:57:40;;;;;;;;;;;17.10;99.90;;;16.13;74.62;95546.44;10400324;28;2401;-79
2021/08/29 15:02:43;;;;;;;;;;;17.00;99.90;;;15.98;72.42;95553.09;10398689;28;2207;-79
2021/08/29 15:07:47;;;;;;;;;;;16.90;99.90;;;15.81;73.22;95553.81;10398006;28;2290;-78
2021/08/29 15:12:50;;;;;;;;;;;16.80;99.90;;;15.56;73.19;95544.41;10403364;28;2104;-79
2021/08/29 15:17:53;;;;;;;;;;;16.60;99.90;;;15.33;73.23;95542.81;10395742;28;2053;-78
2021/08/29 15:22:56;;;;;;;;;;;16.40;99.90;;;15.02;75.56;95538.16;10396044;28;2369;-81
2021/08/29 15:27:59;;;;;;;;;;;16.20;99.90;;;14.77;75.82;95538.75;10395080;28;2196;-78
2021/08/29 15:33:02;;;;;;;;;;;16.00;99.90;;;14.61;77.44;95538.28;10401234;28;2639;-78
2021/08/29 15:38:05;;;;;;;;;;;15.80;99.90;;;14.52;77.16;95537.44;10404239;28;2180;-78
2021/08/29 15:43:07;;;;;;;;;;;15.60;99.90;;;14.41;79.74;95531.41;10426921;28;2195;-78
2021/08/29 15:48:10;;;;;;;;;;;15.50;99.90;;;14.51;80.34;95523.09;10437799;28;2126;-78
2021/08/29 15:53:13;;;;;;;;;;;15.50;99.90;;;14.56;80.55;95524.88;10435305;28;2081;-80
2021/08/29 15:58:16;;;;;;;;;;;15.50;99.90;;;14.66;80.02;95523.84;10407410;28;2177;-80
2021/08/29 16:03:19;;;;;;;;;;;15.50;99.90;;;14.76;80.75;95527.13;10410034;28;2141;-79
2021/08/29 16:08:22;;;;;;;;;;;15.60;99.90;;;15.16;79.04;95532.69;10402099;28;2084;-78
2021/08/29 16:13:25;;;;;;;;;;;15.80;99.90;;;15.18;77.49;95525.06;10420806;28;2562;-80
2021/08/29 16:18:28;;;;;;;;;;;16.00;99.90;;;14.92;78.37;95527.56;10410695;28;2158;-78
2021/08/29 16:23:31;;;;;;;;;;;16.00;99.90;;;14.43;81.71;95537.28;10405761;28;2280;-80
2021/08/29 16:28:34;;;;;;;;;;;15.80;99.90;;;14.33;81.42;95538.31;10401164;28;2187;-80
2021/08/29 16:33:37;;;;;;;;;;;15.50;99.90;;;14.19;83.41;95542.94;10397528;28;2126;-79
2021/08/29 16:38:40;;;;;;;;;;;15.30;99.90;;;14.15;85.38;95539.25;10414566;28;2054;-80
2021/08/29 16:43:43;;;;;;;;;;;15.20;99.90;;;14.21;84.38;95542.66;10402931;28;2163;-79
2021/08/29 16:48:46;;;;;;;;;;;15.20;99.90;;;14.30;84.18;95538.13;10405214;28;2088;-79
2021/08/29 16:53:49;;;;;;;;;;;15.20;99.90;;;14.37;84.49;95535.78;10392081;28;2126;-76
2021/08/29 16:58:52;;;;;;;;;;;15.30;99.90;;;14.30;85.41;95532.72;10395852;28;2025;-77
2021/08/29 17:03:55;;;;;;;;;;;15.30;99.90;;;14.20;86.42;95541.84;10403065;28;2109;-77
2021/08/29 17:08:59;;;;;;;;;;;15.20;99.90;;;14.07;87.51;95529.94;10402127;28;2104;-77
2021/08/29 17:14:01;;;;;;;;;;;15.20;99.90;;;13.85;89.26;95532.53;10400452;28;2045;-78
2021/08/29 17:19:05;;;;;;;;;;;15.00;99.90;;;13.84;89.45;95539.03;10402068;28;2158;-76
2021/08/29 17:24:08;;;;;;;;;;;14.90;99.90;;;13.74;90.49;95540.06;10399800;28;2211;-80
2021/08/29 17:29:11;;;;;;;;;;;14.80;99.90;;;13.69;90.11;95555.56;10403281;28;2104;-78
2021/08/29 17:34:13;;;;;;;;;;;14.80;99.90;;;13.63;90.08;95545.94;10405016;28;2100;-77
2021/08/29 17:39:16;;;;;;;;;;;14.70;99.90;;;13.58;91.77;95537.91;10393258;28;2128;-78
2021/08/29 17:44:19;;;;;;;;;;;14.70;99.90;;;13.46;94.00;95535.69;10406964;28;2231;-77
2021/08/29 17:49:22;;;;;;;;;;;14.60;99.90;;;13.35;94.13;95545.88;10394701;28;2288;-77
2021/08/29 17:54:25;;;;;;;;;;;14.50;99.90;;;13.32;94.46;95543.78;10394960;28;2145;-75
2021/08/29 17:59:30;;;;;;;;;;;14.40;99.90;;;13.19;96.31;95541.81;10388412;28;2155;-77
2021/08/29 18:04:33;;;;;;;;;;;14.30;99.90;;;13.09;97.57;95542.75;10387600;28;2156;-78
2021/08/29 18:09:36;;;;;;;;;;;14.30;99.90;;;13.03;98.25;95549.34;10395030;28;2101;-77
2021/08/29 18:14:39;;;;;;;;;;;14.20;99.90;;;12.99;99.30;95559.13;10390565;28;2082;-77
2021/08/29 18:19:42;;;;;;;;;;;14.10;99.90;;;12.98;98.98;95563.72;10408751;28;2085;-76
2021/08/29 18:24:45;;;;;;;;;;;14.10;99.90;;;12.95;99.37;95569.69;10404083;28;2271;-80
2021/08/29 18:29:47;;;;;;;;;;;14.10;99.90;;;12.88;100.00;95569.28;10396068;28;2093;-79
2021/08/29 18:34:54;;;;;;;;;;;14.00;99.90;;;12.80;100.00;95564.53;10398987;28;1896;-77
2021/08/29 18:39:56;;;;;;;;;;;14.00;99.90;;;12.84;100.00;95580.94;10393988;28;2025;-79
2021/08/29 18:44:59;;;;;;;;;;;14.00;99.90;;;12.90;100.00;95585.16;10402584;28;2016;-79
2021/08/29 18:50:02;;;;;;;;;;;14.00;99.90;;;12.98;100.00;95587.22;10403042;28;2006;-82
2021/08/29 18:55:05;;;;;;;;;;;14.00;99.90;;;12.98;100.00;95588.00;10403182;28;1853;-79
2021/08/29 19:00:15;;;;;;;;;;;14.00;99.90;;;13.04;100.00;95590.59;10398930;28;2037;-80
2021/08/29 19:05:18;;;;;;;;;;;14.00;99.90;;;12.96;100.00;95584.78;10401689;28;2046;-79
2021/08/29 19:10:20;;;;;;;;;;;14.00;99.90;;;12.99;100.00;95581.50;10414579;28;1964;-81
2021/08/29 19:15:23;;;;;;;;;;;14.00;99.90;;;13.05;100.00;95589.53;10410714;28;2006;-80
2021/08/29 19:20:28;;;;;;;;;;;14.00;99.90;;;13.06;100.00;95585.75;10408339;28;3302;-77
2021/08/29 19:25:31;;;;;;;;;;;14.10;99.90;;;13.07;100.00;95584.63;10411933;28;2773;-80
2021/08/29 19:30:34;;;;;;;;;;;14.10;99.90;;;13.13;100.00;95586.16;10396675;28;2097;-79
2021/08/29 19:35:37;;;;;;;;;;;14.10;99.90;;;13.12;100.00;95582.66;10404460;28;1904;-79
2021/08/29 19:40:40;;;;;;;;;;;14.10;99.90;;;13.13;100.00;95589.66;10399525;28;1967;-81
2021/08/29 19:45:42;;;;;;;;;;;14.10;99.90;;;13.07;100.00;95580.03;10417125;28;2113;-79
2021/08/29 19:50:45;;;;;;;;;;;14.20;99.90;;;12.91;100.00;95584.84;10421495;28;1975;-81
2021/08/29 19:55:48;;;;;;;;;;;14.10;99.90;;;12.79;100.00;95576.44;10402057;28;2372;-79
2021/08/29 20:00:51;;;;;;;;;;;14.00;99.90;;;12.67;100.00;95576.06;10397222;28;2037;-79
2021/08/29 20:05:54;;;;;;;;;;;13.80;99.90;;;12.60;100.00;95564.84;10393465;28;2115;-78
2021/08/29 20:10:57;;;;;;;;;;;13.70;99.90;;;12.51;100.00;95567.38;10404228;28;2124;-78
2021/08/29 20:16:01;;;;;;;;;;;13.60;99.90;;;12.42;100.00;95563.72;10397088;28;2108;-78
2021/08/29 20:21:03;;;;;;;;;;;13.50;99.90;;;12.35;100.00;95552.50;10389945;28;2053;-78
2021/08/29 20:26:06;;;;;;;;;;;13.50;99.90;;;12.31;100.00;95554.97;10392407;28;2097;-77
2021/08/29 20:31:09;;;;;;;;;;;13.40;99.90;;;12.31;100.00;95538.78;10399472;28;2080;-80
2021/08/29 20:36:12;;;;;;;;;;;13.40;99.90;;;12.25;100.00;95539.94;10402664;28;2219;-76
2021/08/29 20:41:15;;;;;;;;;;;13.30;99.90;;;12.23;100.00;95544.03;10396333;28;2185;-79
2021/08/29 20:46:17;;;;;;;;;;;13.30;99.90;;;12.20;100.00;95542.69;10402113;28;2096;-76
2021/08/29 20:51:20;;;;;;;;;;;13.20;99.90;;;12.24;100.00;95543.75;10413651;28;2705;-78
2021/08/29 20:56:26;;;;;;;;;;;13.30;99.90;;;12.21;100.00;95533.53;10402159;28;2662;-78
2021/08/29 21:01:29;;;;;;;;;;;13.30;99.90;;;12.24;100.00;95532.97;10401135;28;2168;-76
2021/08/29 21:06:33;;;;;;;;;;;13.30;99.90;;;12.30;100.00;95534.50;10401355;28;2109;-79
2021/08/29 21:11:36;;;;;;;;;;;13.30;99.90;;;12.34;100.00;95526.63;10400281;28;2065;-78
2021/08/29 21:16:39;;;;;;;;;;;13.40;99.90;;;12.33;100.00;95519.63;10403725;28;2057;-77
2021/08/29 21:21:42;;;;;;;;;;;13.40;99.90;;;12.32;100.00;95521.53;10401789;28;2516;-79
2021/08/29 21:26:45;;;;;;;;;;;13.40;99.90;;;12.34;100.00;95523.94;10392316;28;2073;-78
2021/08/29 21:31:48;;;;;;;;;;;13.40;99.90;;;12.37;100.00;95526.84;10399177;28;2074;-78
2021/08/29 21:36:51;;;;;;;;;;;13.40;99.90;;;12.30;100.00;95514.84;10409682;28;2131;-79
2021/08/29 21:41:54;;;;;;;;;;;13.30;99.90;;;12.27;100.00;95508.13;10398566;28;2125;-79
2021/08/29 21:46:56;;;;;;;;;;;13.30;99.90;;;12.22;100.00;95500.13;10415565;28;2059;-80
2021/08/29 21:51:59;;;;;;;;;;;13.20;99.90;;;12.21;100.00;95495.00;10403377;28;2218;-80
2021/08/29 21:57:02;;;;;;;;;;;13.20;99.90;;;12.19;100.00;95492.59;10400934;28;2247;-80
2021/08/29 22:02:05;;;;;;;;;;;13.20;99.90;;;12.21;100.00;95498.50;10403483;28;2140;-77
2021/08/29 22:07:09;;;;;;;;;;;13.20;99.90;;;12.20;100.00;95488.00;10410442;28;2000;-80
2021/08/29 22:12:12;;;;;;;;;;;13.20;99.90;;;12.26;100.00;95476.88;10409200;28;2076;-81
2021/08/29 22:17:16;;;;;;;;;;;13.20;99.90;;;12.22;100.00;95475.06;10404834;28;2116;-78
2021/08/29 22:22:19;;;;;;;;;;;13.20;99.90;;;12.20;100.00;95466.47;10400187;28;2152;-79
2021/08/29 22:27:22;;;;;;;;;;;13.20;99.90;;;12.15;100.00;95470.00;10398758;28;2198;-78
2021/08/29 22:32:26;;;;;;;;;;;13.20;99.90;;;12.07;100.00;95463.38;10423238;28;2145;-83
2021/08/29 22:37:28;;;;;;;;;;;13.10;99.90;;;12.01;100.00;95466.44;10405424;28;2140;-80
2021/08/29 22:42:33;;;;;;;;;;;13.10;99.90;;;11.98;100.00;95465.13;10409249;28;2055;-81
2021/08/29 22:47:36;;;;;;;;;;;13.00;99.90;;;11.94;100.00;95464.09;10406507;28;2231;-78
2021/08/29 22:52:39;;;;;;;;;;;12.90;99.90;;;11.99;100.00;95460.56;10396067;28;2100;-79
2021/08/29 22:57:42;;;;;;;;;;;12.90;99.90;;;11.96;100.00;95463.81;10391501;28;2186;-78
2021/08/29 23:02:45;;;;;;;;;;;13.00;99.90;;;11.96;100.00;95461.94;10390416;28;2155;-77